This is the latest recevied weather packets stored in our database for station/object W9WRP. If no packets are shown the sender has not sent any weather packets the latest 10 day(s).
| Time | Temp. | Humidity | Pressure | Rain* | Wind** | Luminosity | Snow |
|---|---|---|---|---|---|---|---|
| 1788041904 | 42.22° C | 20% | 1011.2 hPa | 0 mm | - | 148 W/m² | - |
| 1788041599 | 43.33° C | 19% | 1011.6 hPa | 0 mm | - | 483 W/m² | - |
| 1788041299 | 43.33° C | 18% | 1011.4 hPa | 0 mm | - | 415 W/m² | - |
| 1788040998 | 42.78° C | 18% | 1011.5 hPa | 0 mm | - | 430 W/m² | - |
| 1788040697 | 42.78° C | 20% | 1011.7 hPa | 0 mm | - | 526 W/m² | - |
| 1788040391 | 43.89° C | 19% | 1011.8 hPa | 0 mm | - | 509 W/m² | - |
| 1788040087 | 43.89° C | 18% | 1011.8 hPa | 0 mm | - | 533 W/m² | - |
| 1788039776 | 43.33° C | 19% | 1011.7 hPa | 0 mm | - | 560 W/m² | - |
| 1788039470 | 43.89° C | 20% | 1011.7 hPa | 0 mm | - | 524 W/m² | - |
| 1788039166 | 43.89° C | 20% | 1012 hPa | 0 mm | - | 579 W/m² | - |
| 1788038862 | 44.44° C | 19% | 1012 hPa | 0 mm | - | 592 W/m² | - |
| 1788038557 | 44.44° C | 19% | 1012.1 hPa | 0 mm | - | 609 W/m² | - |
| 1788038255 | 43.33° C | 21% | 1012.3 hPa | 0 mm | - | 632 W/m² | - |
| 1788037951 | 43.33° C | 21% | 1012.3 hPa | 0 mm | - | 623 W/m² | - |
| 1788037651 | 43.89° C | 21% | 1012.4 hPa | 0 mm | - | 632 W/m² | - |
| 1788037346 | 43.33° C | 21% | 1012.6 hPa | 0 mm | - | 640 W/m² | - |
| 1788037040 | 43.89° C | 21% | 1012.5 hPa | 0 mm | - | 652 W/m² | - |
| 1788036736 | 43.33° C | 21% | 1012.7 hPa | 0 mm | - | 667 W/m² | - |
| 1788036432 | 43.33° C | 22% | 1012.8 hPa | 0 mm | - | 671 W/m² | - |
| 1788036127 | 43.89° C | 21% | 1012.8 hPa | 0 mm | - | 676 W/m² | - |
| 1788035826 | 43.33° C | 21% | 1013.1 hPa | 0 mm | - | 679 W/m² | - |
| 1788035521 | 43.33° C | 22% | 1012.9 hPa | 0 mm | - | 688 W/m² | - |
| 1788035216 | 43.33° C | 22% | 1013.1 hPa | 0 mm | - | 691 W/m² | - |
| 1788034907 | 42.78° C | 22% | 1013.3 hPa | 0 mm | - | 703 W/m² | - |
| 1788034602 | 42.78° C | 22% | 1013.1 hPa | 0 mm | - | 710 W/m² | - |
* Rain latest hour (hover to see other rain measurements)
** Current wind speed in m/s (hover to see current wind gust speed)